sensor_id;sensor_type;location;lat;lon;timestamp;P1;durP1;ratioP1;P2;durP2;ratioP2
49978;SDS011;35869;50.990;6.962;2023-03-23T00:01:38;2.90;;;1.60;;
49978;SDS011;35869;50.990;6.962;2023-03-23T00:06:38;6.60;;;1.80;;
49978;SDS011;35869;50.990;6.962;2023-03-23T00:11:38;1.42;;;1.33;;
49978;SDS011;35869;50.990;6.962;2023-03-23T00:16:39;1.70;;;1.25;;
49978;SDS011;35869;50.990;6.962;2023-03-23T00:21:41;5.95;;;1.95;;
49978;SDS011;35869;50.990;6.962;2023-03-23T00:26:45;4.38;;;1.85;;
49978;SDS011;35869;50.990;6.962;2023-03-23T00:31:47;2.80;;;1.88;;
49978;SDS011;35869;50.990;6.962;2023-03-23T00:36:49;2.13;;;1.48;;
49978;SDS011;35869;50.990;6.962;2023-03-23T00:41:52;1.95;;;1.52;;
49978;SDS011;35869;50.990;6.962;2023-03-23T00:46:53;2.95;;;1.70;;
49978;SDS011;35869;50.990;6.962;2023-03-23T00:51:57;4.72;;;1.60;;
49978;SDS011;35869;50.990;6.962;2023-03-23T00:56:57;2.83;;;1.10;;
49978;SDS011;35869;50.990;6.962;2023-03-23T01:01:58;4.40;;;1.35;;
49978;SDS011;35869;50.990;6.962;2023-03-23T01:06:58;3.58;;;1.25;;
49978;SDS011;35869;50.990;6.962;2023-03-23T01:11:58;3.75;;;1.75;;
49978;SDS011;35869;50.990;6.962;2023-03-23T01:16:58;2.97;;;1.58;;
49978;SDS011;35869;50.990;6.962;2023-03-23T01:21:58;3.28;;;1.15;;
49978;SDS011;35869;50.990;6.962;2023-03-23T01:26:59;1.85;;;1.42;;
49978;SDS011;35869;50.990;6.962;2023-03-23T01:31:59;2.05;;;1.67;;
49978;SDS011;35869;50.990;6.962;2023-03-23T01:36:59;1.60;;;1.38;;
49978;SDS011;35869;50.990;6.962;2023-03-23T01:41:59;1.60;;;1.25;;
49978;SDS011;35869;50.990;6.962;2023-03-23T01:46:59;3.40;;;1.77;;
49978;SDS011;35869;50.990;6.962;2023-03-23T01:52:02;2.85;;;1.77;;
49978;SDS011;35869;50.990;6.962;2023-03-23T01:57:11;3.03;;;1.85;;
49978;SDS011;35869;50.990;6.962;2023-03-23T02:02:14;2.72;;;1.95;;
49978;SDS011;35869;50.990;6.962;2023-03-23T02:12:17;3.90;;;1.73;;
49978;SDS011;35869;50.990;6.962;2023-03-23T02:17:30;3.45;;;2.78;;
49978;SDS011;35869;50.990;6.962;2023-03-23T02:28:13;2.55;;;2.00;;
49978;SDS011;35869;50.990;6.962;2023-03-23T02:33:36;2.03;;;1.70;;
49978;SDS011;35869;50.990;6.962;2023-03-23T02:44:02;3.47;;;1.70;;
49978;SDS011;35869;50.990;6.962;2023-03-23T02:49:03;2.33;;;1.70;;
49978;SDS011;35869;50.990;6.962;2023-03-23T02:54:06;2.40;;;1.98;;
49978;SDS011;35869;50.990;6.962;2023-03-23T02:59:07;2.53;;;1.45;;
49978;SDS011;35869;50.990;6.962;2023-03-23T03:04:14;2.67;;;1.40;;
49978;SDS011;35869;50.990;6.962;2023-03-23T03:14:24;1.65;;;1.40;;
49978;SDS011;35869;50.990;6.962;2023-03-23T03:19:34;1.42;;;1.10;;
49978;SDS011;35869;50.990;6.962;2023-03-23T03:24:39;2.67;;;1.60;;
49978;SDS011;35869;50.990;6.962;2023-03-23T03:29:41;1.92;;;1.35;;
49978;SDS011;35869;50.990;6.962;2023-03-23T03:34:46;2.50;;;1.30;;
49978;SDS011;35869;50.990;6.962;2023-03-23T03:39:46;1.90;;;1.40;;
49978;SDS011;35869;50.990;6.962;2023-03-23T03:44:46;1.65;;;1.15;;
49978;SDS011;35869;50.990;6.962;2023-03-23T03:49:46;2.38;;;1.10;;
49978;SDS011;35869;50.990;6.962;2023-03-23T03:54:46;1.60;;;1.15;;
49978;SDS011;35869;50.990;6.962;2023-03-23T03:59:47;2.08;;;1.33;;
49978;SDS011;35869;50.990;6.962;2023-03-23T04:04:47;2.25;;;1.20;;
49978;SDS011;35869;50.990;6.962;2023-03-23T04:09:48;2.08;;;1.00;;
49978;SDS011;35869;50.990;6.962;2023-03-23T04:14:48;2.03;;;1.30;;
49978;SDS011;35869;50.990;6.962;2023-03-23T04:19:48;1.17;;;0.93;;
49978;SDS011;35869;50.990;6.962;2023-03-23T04:24:49;2.25;;;1.02;;
49978;SDS011;35869;50.990;6.962;2023-03-23T04:29:49;1.73;;;1.50;;
49978;SDS011;35869;50.990;6.962;2023-03-23T04:34:49;1.42;;;1.15;;
49978;SDS011;35869;50.990;6.962;2023-03-23T04:39:49;1.35;;;0.93;;
49978;SDS011;35869;50.990;6.962;2023-03-23T04:44:49;1.25;;;1.10;;
49978;SDS011;35869;50.990;6.962;2023-03-23T04:49:50;2.55;;;1.10;;
49978;SDS011;35869;50.990;6.962;2023-03-23T04:54:50;2.30;;;1.30;;
49978;SDS011;35869;50.990;6.962;2023-03-23T04:59:50;5.75;;;1.50;;
49978;SDS011;35869;50.990;6.962;2023-03-23T05:04:51;2.63;;;1.48;;
49978;SDS011;35869;50.990;6.962;2023-03-23T05:09:51;1.95;;;1.33;;
49978;SDS011;35869;50.990;6.962;2023-03-23T05:14:51;2.35;;;1.50;;
49978;SDS011;35869;50.990;6.962;2023-03-23T05:19:52;1.52;;;1.25;;
49978;SDS011;35869;50.990;6.962;2023-03-23T05:24:52;2.45;;;1.63;;
49978;SDS011;35869;50.990;6.962;2023-03-23T05:29:52;1.30;;;1.20;;
49978;SDS011;35869;50.990;6.962;2023-03-23T05:34:53;3.80;;;1.43;;
49978;SDS011;35869;50.990;6.962;2023-03-23T05:39:53;2.85;;;1.60;;
49978;SDS011;35869;50.990;6.962;2023-03-23T05:44:53;2.57;;;1.77;;
49978;SDS011;35869;50.990;6.962;2023-03-23T05:49:53;1.88;;;1.60;;
49978;SDS011;35869;50.990;6.962;2023-03-23T05:54:54;1.70;;;1.60;;
49978;SDS011;35869;50.990;6.962;2023-03-23T05:59:54;2.22;;;1.77;;
49978;SDS011;35869;50.990;6.962;2023-03-23T06:04:54;1.70;;;1.30;;
49978;SDS011;35869;50.990;6.962;2023-03-23T06:09:55;2.47;;;1.80;;
49978;SDS011;35869;50.990;6.962;2023-03-23T06:14:55;3.90;;;2.07;;
49978;SDS011;35869;50.990;6.962;2023-03-23T06:19:55;2.60;;;2.05;;
49978;SDS011;35869;50.990;6.962;2023-03-23T06:24:56;4.72;;;2.10;;
49978;SDS011;35869;50.990;6.962;2023-03-23T06:29:56;4.63;;;2.08;;
49978;SDS011;35869;50.990;6.962;2023-03-23T06:34:56;4.53;;;2.15;;
49978;SDS011;35869;50.990;6.962;2023-03-23T06:39:56;2.90;;;1.92;;
49978;SDS011;35869;50.990;6.962;2023-03-23T06:44:56;5.10;;;1.85;;
49978;SDS011;35869;50.990;6.962;2023-03-23T06:49:57;3.08;;;1.42;;
49978;SDS011;35869;50.990;6.962;2023-03-23T06:54:58;3.65;;;1.77;;
49978;SDS011;35869;50.990;6.962;2023-03-23T06:59:58;3.55;;;1.67;;
49978;SDS011;35869;50.990;6.962;2023-03-23T07:04:58;2.60;;;1.65;;
49978;SDS011;35869;50.990;6.962;2023-03-23T07:09:58;4.55;;;2.17;;
49978;SDS011;35869;50.990;6.962;2023-03-23T07:14:58;3.30;;;1.80;;
49978;SDS011;35869;50.990;6.962;2023-03-23T07:19:59;5.43;;;1.93;;
49978;SDS011;35869;50.990;6.962;2023-03-23T07:24:59;4.75;;;2.08;;
49978;SDS011;35869;50.990;6.962;2023-03-23T07:29:59;3.08;;;1.75;;
49978;SDS011;35869;50.990;6.962;2023-03-23T07:34:59;4.95;;;2.08;;
49978;SDS011;35869;50.990;6.962;2023-03-23T07:40:00;2.80;;;1.23;;
49978;SDS011;35869;50.990;6.962;2023-03-23T07:45:00;2.53;;;1.10;;
49978;SDS011;35869;50.990;6.962;2023-03-23T07:50:00;3.37;;;1.53;;
49978;SDS011;35869;50.990;6.962;2023-03-23T07:55:01;3.05;;;1.15;;
49978;SDS011;35869;50.990;6.962;2023-03-23T08:00:02;3.72;;;1.33;;
49978;SDS011;35869;50.990;6.962;2023-03-23T08:05:02;3.40;;;1.20;;
49978;SDS011;35869;50.990;6.962;2023-03-23T08:10:03;2.63;;;1.17;;
49978;SDS011;35869;50.990;6.962;2023-03-23T08:15:04;2.55;;;1.27;;
49978;SDS011;35869;50.990;6.962;2023-03-23T08:20:05;2.80;;;1.33;;
49978;SDS011;35869;50.990;6.962;2023-03-23T08:30:08;1.77;;;1.00;;
49978;SDS011;35869;50.990;6.962;2023-03-23T08:35:11;2.13;;;1.08;;
49978;SDS011;35869;50.990;6.962;2023-03-23T08:40:13;2.40;;;1.38;;
49978;SDS011;35869;50.990;6.962;2023-03-23T08:45:15;4.25;;;1.38;;
49978;SDS011;35869;50.990;6.962;2023-03-23T08:50:19;4.68;;;1.10;;
49978;SDS011;35869;50.990;6.962;2023-03-23T08:55:24;4.28;;;1.45;;
49978;SDS011;35869;50.990;6.962;2023-03-23T09:00:24;2.77;;;1.13;;
49978;SDS011;35869;50.990;6.962;2023-03-23T09:05:25;2.87;;;1.30;;
49978;SDS011;35869;50.990;6.962;2023-03-23T09:10:27;2.45;;;0.93;;
49978;SDS011;35869;50.990;6.962;2023-03-23T09:15:28;4.38;;;1.23;;
49978;SDS011;35869;50.990;6.962;2023-03-23T09:20:28;2.03;;;1.10;;
49978;SDS011;35869;50.990;6.962;2023-03-23T09:30:30;2.08;;;1.20;;
49978;SDS011;35869;50.990;6.962;2023-03-23T09:35:32;3.55;;;1.38;;
49978;SDS011;35869;50.990;6.962;2023-03-23T09:40:39;3.60;;;0.93;;
49978;SDS011;35869;50.990;6.962;2023-03-23T09:56:26;3.28;;;1.33;;
49978;SDS011;35869;50.990;6.962;2023-03-23T10:01:34;4.40;;;1.30;;
49978;SDS011;35869;50.990;6.962;2023-03-23T10:06:37;5.10;;;1.55;;
49978;SDS011;35869;50.990;6.962;2023-03-23T10:22:18;4.72;;;1.30;;
49978;SDS011;35869;50.990;6.962;2023-03-23T10:27:39;1.33;;;1.05;;
49978;SDS011;35869;50.990;6.962;2023-03-23T10:32:53;3.07;;;0.83;;
49978;SDS011;35869;50.990;6.962;2023-03-23T10:38:02;2.20;;;0.90;;
49978;SDS011;35869;50.990;6.962;2023-03-23T10:43:07;3.22;;;1.02;;
49978;SDS011;35869;50.990;6.962;2023-03-23T10:48:11;2.40;;;1.00;;
49978;SDS011;35869;50.990;6.962;2023-03-23T10:53:16;0.85;;;0.55;;
49978;SDS011;35869;50.990;6.962;2023-03-23T10:58:31;0.77;;;0.70;;
49978;SDS011;35869;50.990;6.962;2023-03-23T11:08:48;0.77;;;0.52;;
49978;SDS011;35869;50.990;6.962;2023-03-23T11:13:56;3.30;;;0.95;;
49978;SDS011;35869;50.990;6.962;2023-03-23T11:19:15;1.13;;;0.68;;
49978;SDS011;35869;50.990;6.962;2023-03-23T11:24:22;1.52;;;0.70;;
49978;SDS011;35869;50.990;6.962;2023-03-23T11:29:25;1.55;;;0.70;;
49978;SDS011;35869;50.990;6.962;2023-03-23T11:34:31;1.27;;;0.80;;
49978;SDS011;35869;50.990;6.962;2023-03-23T11:39:53;2.13;;;0.82;;
49978;SDS011;35869;50.990;6.962;2023-03-23T11:44:53;1.48;;;0.70;;
49978;SDS011;35869;50.990;6.962;2023-03-23T11:55:12;2.00;;;0.98;;
49978;SDS011;35869;50.990;6.962;2023-03-23T12:00:18;4.15;;;0.90;;
49978;SDS011;35869;50.990;6.962;2023-03-23T12:05:27;1.20;;;0.68;;
49978;SDS011;35869;50.990;6.962;2023-03-23T12:10:52;1.73;;;0.70;;
49978;SDS011;35869;50.990;6.962;2023-03-23T12:16:00;1.60;;;0.80;;
49978;SDS011;35869;50.990;6.962;2023-03-23T12:21:23;0.68;;;0.50;;
49978;SDS011;35869;50.990;6.962;2023-03-23T12:48:17;1.17;;;0.70;;
49978;SDS011;35869;50.990;6.962;2023-03-23T12:53:42;1.75;;;0.90;;
49978;SDS011;35869;50.990;6.962;2023-03-23T12:58:50;4.10;;;1.15;;
49978;SDS011;35869;50.990;6.962;2023-03-23T13:03:59;1.10;;;0.70;;
49978;SDS011;35869;50.990;6.962;2023-03-23T13:09:16;2.88;;;0.98;;
49978;SDS011;35869;50.990;6.962;2023-03-23T13:14:36;3.42;;;0.95;;
49978;SDS011;35869;50.990;6.962;2023-03-23T13:20:32;3.88;;;1.08;;
49978;SDS011;35869;50.990;6.962;2023-03-23T13:25:38;2.38;;;1.10;;
49978;SDS011;35869;50.990;6.962;2023-03-23T13:31:03;2.97;;;1.00;;
49978;SDS011;35869;50.990;6.962;2023-03-23T13:36:13;0.93;;;0.70;;
49978;SDS011;35869;50.990;6.962;2023-03-23T13:41:15;2.25;;;1.00;;
49978;SDS011;35869;50.990;6.962;2023-03-23T13:46:27;0.68;;;0.55;;
49978;SDS011;35869;50.990;6.962;2023-03-23T13:51:36;2.65;;;0.98;;
49978;SDS011;35869;50.990;6.962;2023-03-23T13:56:55;0.95;;;0.80;;
49978;SDS011;35869;50.990;6.962;2023-03-23T14:07:56;3.42;;;1.05;;
49978;SDS011;35869;50.990;6.962;2023-03-23T14:12:56;2.75;;;1.00;;
49978;SDS011;35869;50.990;6.962;2023-03-23T14:18:01;2.45;;;0.95;;
49978;SDS011;35869;50.990;6.962;2023-03-23T14:23:03;2.40;;;0.95;;
49978;SDS011;35869;50.990;6.962;2023-03-23T14:28:03;3.92;;;1.13;;
49978;SDS011;35869;50.990;6.962;2023-03-23T14:33:05;1.35;;;0.70;;
49978;SDS011;35869;50.990;6.962;2023-03-23T14:38:07;7.78;;;0.82;;
49978;SDS011;35869;50.990;6.962;2023-03-23T14:43:16;3.30;;;1.10;;
49978;SDS011;35869;50.990;6.962;2023-03-23T14:48:19;2.65;;;0.80;;
49978;SDS011;35869;50.990;6.962;2023-03-23T14:53:22;4.32;;;1.50;;
49978;SDS011;35869;50.990;6.962;2023-03-23T14:58:24;5.60;;;1.67;;
49978;SDS011;35869;50.990;6.962;2023-03-23T15:03:25;3.22;;;1.08;;
49978;SDS011;35869;50.990;6.962;2023-03-23T15:08:28;4.20;;;1.70;;
49978;SDS011;35869;50.990;6.962;2023-03-23T15:13:32;3.67;;;1.80;;
49978;SDS011;35869;50.990;6.962;2023-03-23T15:18:35;4.82;;;1.30;;
49978;SDS011;35869;50.990;6.962;2023-03-23T15:23:40;2.47;;;1.33;;
49978;SDS011;35869;50.990;6.962;2023-03-23T15:28:43;2.85;;;1.30;;
49978;SDS011;35869;50.990;6.962;2023-03-23T15:33:43;2.13;;;1.55;;
49978;SDS011;35869;50.990;6.962;2023-03-23T15:43:54;3.45;;;1.48;;
49978;SDS011;35869;50.990;6.962;2023-03-23T15:54:00;3.92;;;1.40;;
49978;SDS011;35869;50.990;6.962;2023-03-23T15:59:01;4.65;;;1.40;;
49978;SDS011;35869;50.990;6.962;2023-03-23T16:04:06;3.38;;;1.17;;
49978;SDS011;35869;50.990;6.962;2023-03-23T16:09:07;3.78;;;1.38;;
49978;SDS011;35869;50.990;6.962;2023-03-23T16:14:12;4.25;;;1.27;;
49978;SDS011;35869;50.990;6.962;2023-03-23T16:24:13;3.22;;;1.50;;
49978;SDS011;35869;50.990;6.962;2023-03-23T16:29:14;4.38;;;1.55;;
49978;SDS011;35869;50.990;6.962;2023-03-23T16:34:15;4.93;;;1.40;;
49978;SDS011;35869;50.990;6.962;2023-03-23T16:39:16;4.82;;;1.40;;
49978;SDS011;35869;50.990;6.962;2023-03-23T16:44:16;3.40;;;1.80;;
49978;SDS011;35869;50.990;6.962;2023-03-23T16:54:16;3.25;;;1.35;;
49978;SDS011;35869;50.990;6.962;2023-03-23T16:59:16;5.40;;;1.80;;
49978;SDS011;35869;50.990;6.962;2023-03-23T17:04:17;3.55;;;1.15;;
49978;SDS011;35869;50.990;6.962;2023-03-23T17:09:17;5.43;;;1.77;;
49978;SDS011;35869;50.990;6.962;2023-03-23T17:14:17;5.07;;;1.77;;
49978;SDS011;35869;50.990;6.962;2023-03-23T17:24:18;5.45;;;1.65;;
49978;SDS011;35869;50.990;6.962;2023-03-23T17:34:19;2.75;;;1.60;;
49978;SDS011;35869;50.990;6.962;2023-03-23T17:39:19;5.38;;;2.50;;
49978;SDS011;35869;50.990;6.962;2023-03-23T17:44:19;2.65;;;1.52;;
49978;SDS011;35869;50.990;6.962;2023-03-23T17:54:20;4.43;;;1.50;;
49978;SDS011;35869;50.990;6.962;2023-03-23T17:59:20;3.88;;;1.50;;
49978;SDS011;35869;50.990;6.962;2023-03-23T18:04:20;4.38;;;2.13;;
49978;SDS011;35869;50.990;6.962;2023-03-23T18:14:21;5.13;;;2.13;;
49978;SDS011;35869;50.990;6.962;2023-03-23T18:24:21;7.43;;;2.03;;
49978;SDS011;35869;50.990;6.962;2023-03-23T18:29:22;3.60;;;1.70;;
49978;SDS011;35869;50.990;6.962;2023-03-23T18:39:22;5.10;;;1.95;;
49978;SDS011;35869;50.990;6.962;2023-03-23T18:44:22;4.57;;;2.33;;
49978;SDS011;35869;50.990;6.962;2023-03-23T18:49:23;6.47;;;2.13;;
49978;SDS011;35869;50.990;6.962;2023-03-23T18:54:23;3.15;;;1.75;;
49978;SDS011;35869;50.990;6.962;2023-03-23T18:59:23;2.92;;;1.90;;
49978;SDS011;35869;50.990;6.962;2023-03-23T19:09:24;4.90;;;1.63;;
49978;SDS011;35869;50.990;6.962;2023-03-23T19:14:24;6.07;;;1.63;;
49978;SDS011;35869;50.990;6.962;2023-03-23T19:19:24;4.20;;;2.05;;
49978;SDS011;35869;50.990;6.962;2023-03-23T19:24:24;8.27;;;1.95;;
49978;SDS011;35869;50.990;6.962;2023-03-23T19:34:25;4.15;;;1.55;;
49978;SDS011;35869;50.990;6.962;2023-03-23T19:44:25;4.60;;;1.50;;
49978;SDS011;35869;50.990;6.962;2023-03-23T19:49:26;2.15;;;1.58;;
49978;SDS011;35869;50.990;6.962;2023-03-23T19:54:26;3.08;;;1.92;;
49978;SDS011;35869;50.990;6.962;2023-03-23T19:59:27;5.05;;;1.63;;
49978;SDS011;35869;50.990;6.962;2023-03-23T20:04:27;3.57;;;1.70;;
49978;SDS011;35869;50.990;6.962;2023-03-23T20:09:27;2.63;;;1.60;;
49978;SDS011;35869;50.990;6.962;2023-03-23T20:14:27;2.58;;;1.60;;
49978;SDS011;35869;50.990;6.962;2023-03-23T20:19:27;2.75;;;1.73;;
49978;SDS011;35869;50.990;6.962;2023-03-23T20:24:28;4.35;;;2.03;;
49978;SDS011;35869;50.990;6.962;2023-03-23T20:29:28;5.70;;;2.70;;
49978;SDS011;35869;50.990;6.962;2023-03-23T20:39:30;4.70;;;1.70;;
49978;SDS011;35869;50.990;6.962;2023-03-23T20:44:31;1.50;;;1.30;;
49978;SDS011;35869;50.990;6.962;2023-03-23T20:49:35;3.15;;;1.65;;
49978;SDS011;35869;50.990;6.962;2023-03-23T20:54:37;3.53;;;1.67;;
49978;SDS011;35869;50.990;6.962;2023-03-23T20:59:37;4.22;;;1.88;;
49978;SDS011;35869;50.990;6.962;2023-03-23T21:04:37;3.23;;;1.70;;
49978;SDS011;35869;50.990;6.962;2023-03-23T21:09:38;3.03;;;1.15;;
49978;SDS011;35869;50.990;6.962;2023-03-23T21:14:39;3.00;;;1.08;;
49978;SDS011;35869;50.990;6.962;2023-03-23T21:24:40;2.95;;;1.50;;
49978;SDS011;35869;50.990;6.962;2023-03-23T21:29:40;3.15;;;1.45;;
49978;SDS011;35869;50.990;6.962;2023-03-23T21:34:41;3.40;;;1.30;;
49978;SDS011;35869;50.990;6.962;2023-03-23T21:39:41;1.65;;;1.25;;
49978;SDS011;35869;50.990;6.962;2023-03-23T21:44:41;3.28;;;1.80;;
49978;SDS011;35869;50.990;6.962;2023-03-23T21:54:42;3.05;;;1.73;;
49978;SDS011;35869;50.990;6.962;2023-03-23T21:59:42;3.42;;;1.88;;
49978;SDS011;35869;50.990;6.962;2023-03-23T22:04:42;4.30;;;1.83;;
49978;SDS011;35869;50.990;6.962;2023-03-23T22:09:44;2.55;;;1.08;;
49978;SDS011;35869;50.990;6.962;2023-03-23T22:14:44;3.58;;;1.40;;
49978;SDS011;35869;50.990;6.962;2023-03-23T22:19:44;2.60;;;1.23;;
49978;SDS011;35869;50.990;6.962;2023-03-23T22:24:45;2.20;;;1.10;;
49978;SDS011;35869;50.990;6.962;2023-03-23T22:29:45;2.20;;;1.75;;
49978;SDS011;35869;50.990;6.962;2023-03-23T22:34:45;1.83;;;1.40;;
49978;SDS011;35869;50.990;6.962;2023-03-23T22:39:45;2.88;;;1.23;;
49978;SDS011;35869;50.990;6.962;2023-03-23T22:44:45;2.55;;;1.15;;
49978;SDS011;35869;50.990;6.962;2023-03-23T22:49:46;1.60;;;1.25;;
49978;SDS011;35869;50.990;6.962;2023-03-23T22:54:46;3.65;;;1.20;;
49978;SDS011;35869;50.990;6.962;2023-03-23T22:59:47;2.58;;;1.15;;
49978;SDS011;35869;50.990;6.962;2023-03-23T23:09:47;1.52;;;0.98;;
49978;SDS011;35869;50.990;6.962;2023-03-23T23:14:48;2.83;;;1.40;;
49978;SDS011;35869;50.990;6.962;2023-03-23T23:24:48;1.83;;;1.10;;
49978;SDS011;35869;50.990;6.962;2023-03-23T23:29:48;2.13;;;1.30;;
49978;SDS011;35869;50.990;6.962;2023-03-23T23:34:48;2.95;;;1.50;;
49978;SDS011;35869;50.990;6.962;2023-03-23T23:39:49;2.47;;;1.15;;
49978;SDS011;35869;50.990;6.962;2023-03-23T23:44:49;2.08;;;1.30;;
49978;SDS011;35869;50.990;6.962;2023-03-23T23:49:49;3.88;;;1.23;;
49978;SDS011;35869;50.990;6.962;2023-03-23T23:54:49;1.20;;;1.00;;
49978;SDS011;35869;50.990;6.962;2023-03-23T23:59:50;2.65;;;1.45;;
